sensor_id;sensor_type;location;lat;lon;timestamp;P1;durP1;ratioP1;P2;durP2;ratioP2
28960;SDS011;16068;42.896;20.868;2024-01-30T00:00:19;16.02;;;8.43;;
28960;SDS011;16068;42.896;20.868;2024-01-30T00:03:13;20.88;;;8.52;;
28960;SDS011;16068;42.896;20.868;2024-01-30T00:08:47;26.70;;;12.40;;
28960;SDS011;16068;42.896;20.868;2024-01-30T00:11:34;28.15;;;14.02;;
28960;SDS011;16068;42.896;20.868;2024-01-30T00:14:20;39.45;;;14.85;;
28960;SDS011;16068;42.896;20.868;2024-01-30T00:17:06;40.65;;;17.65;;
28960;SDS011;16068;42.896;20.868;2024-01-30T00:19:53;35.72;;;15.95;;
28960;SDS011;16068;42.896;20.868;2024-01-30T00:22:39;47.13;;;16.08;;
28960;SDS011;16068;42.896;20.868;2024-01-30T00:25:33;31.10;;;16.38;;
28960;SDS011;16068;42.896;20.868;2024-01-30T00:28:19;32.67;;;14.45;;
28960;SDS011;16068;42.896;20.868;2024-01-30T00:31:07;33.40;;;16.08;;
28960;SDS011;16068;42.896;20.868;2024-01-30T00:33:54;32.67;;;16.27;;
28960;SDS011;16068;42.896;20.868;2024-01-30T00:36:41;34.15;;;17.02;;
28960;SDS011;16068;42.896;20.868;2024-01-30T00:39:27;31.88;;;15.00;;
28960;SDS011;16068;42.896;20.868;2024-01-30T00:42:13;39.67;;;16.10;;
28960;SDS011;16068;42.896;20.868;2024-01-30T00:44:59;30.80;;;16.27;;
28960;SDS011;16068;42.896;20.868;2024-01-30T00:47:45;34.70;;;15.68;;
28960;SDS011;16068;42.896;20.868;2024-01-30T00:50:31;31.10;;;14.48;;
28960;SDS011;16068;42.896;20.868;2024-01-30T00:53:18;27.27;;;15.52;;
28960;SDS011;16068;42.896;20.868;2024-01-30T00:56:04;25.42;;;14.48;;
28960;SDS011;16068;42.896;20.868;2024-01-30T00:58:50;23.10;;;12.98;;
28960;SDS011;16068;42.896;20.868;2024-01-30T01:01:36;29.30;;;11.90;;
28960;SDS011;16068;42.896;20.868;2024-01-30T01:04:23;22.35;;;10.02;;
28960;SDS011;16068;42.896;20.868;2024-01-30T01:07:09;19.35;;;9.82;;
28960;SDS011;16068;42.896;20.868;2024-01-30T01:09:55;19.92;;;10.05;;
28960;SDS011;16068;42.896;20.868;2024-01-30T01:12:41;15.77;;;8.73;;
28960;SDS011;16068;42.896;20.868;2024-01-30T01:15:30;19.73;;;8.50;;
28960;SDS011;16068;42.896;20.868;2024-01-30T01:18:15;14.13;;;7.10;;
28960;SDS011;16068;42.896;20.868;2024-01-30T01:21:02;16.70;;;7.43;;
28960;SDS011;16068;42.896;20.868;2024-01-30T01:23:48;12.23;;;6.28;;
28960;SDS011;16068;42.896;20.868;2024-01-30T01:26:35;11.93;;;6.28;;
28960;SDS011;16068;42.896;20.868;2024-01-30T01:29:21;13.02;;;6.40;;
28960;SDS011;16068;42.896;20.868;2024-01-30T01:32:15;9.75;;;6.55;;
28960;SDS011;16068;42.896;20.868;2024-01-30T01:35:02;15.20;;;7.22;;
28960;SDS011;16068;42.896;20.868;2024-01-30T01:37:51;11.43;;;6.57;;
28960;SDS011;16068;42.896;20.868;2024-01-30T01:40:41;13.85;;;7.63;;
28960;SDS011;16068;42.896;20.868;2024-01-30T01:43:29;10.32;;;6.30;;
28960;SDS011;16068;42.896;20.868;2024-01-30T01:46:17;18.98;;;7.25;;
28960;SDS011;16068;42.896;20.868;2024-01-30T01:49:04;11.43;;;6.68;;
28960;SDS011;16068;42.896;20.868;2024-01-30T01:51:51;12.68;;;7.00;;
28960;SDS011;16068;42.896;20.868;2024-01-30T01:54:39;17.58;;;6.13;;
28960;SDS011;16068;42.896;20.868;2024-01-30T01:57:26;13.55;;;6.57;;
28960;SDS011;16068;42.896;20.868;2024-01-30T02:00:12;12.63;;;5.97;;
28960;SDS011;16068;42.896;20.868;2024-01-30T02:02:59;13.10;;;6.25;;
28960;SDS011;16068;42.896;20.868;2024-01-30T02:05:46;14.68;;;7.03;;
28960;SDS011;16068;42.896;20.868;2024-01-30T02:08:32;10.68;;;5.70;;
28960;SDS011;16068;42.896;20.868;2024-01-30T02:11:19;13.95;;;6.72;;
28960;SDS011;16068;42.896;20.868;2024-01-30T02:14:06;14.35;;;7.13;;
28960;SDS011;16068;42.896;20.868;2024-01-30T02:16:52;15.32;;;6.93;;
28960;SDS011;16068;42.896;20.868;2024-01-30T02:19:42;12.75;;;6.03;;
28960;SDS011;16068;42.896;20.868;2024-01-30T02:22:28;11.00;;;6.10;;
28960;SDS011;16068;42.896;20.868;2024-01-30T02:25:14;9.38;;;5.95;;
28960;SDS011;16068;42.896;20.868;2024-01-30T02:28:00;13.98;;;7.35;;
28960;SDS011;16068;42.896;20.868;2024-01-30T02:30:50;10.98;;;6.50;;
28960;SDS011;16068;42.896;20.868;2024-01-30T02:33:36;15.57;;;6.95;;
28960;SDS011;16068;42.896;20.868;2024-01-30T02:36:25;11.65;;;6.65;;
28960;SDS011;16068;42.896;20.868;2024-01-30T02:39:11;17.60;;;7.22;;
28960;SDS011;16068;42.896;20.868;2024-01-30T02:41:57;14.68;;;6.60;;
28960;SDS011;16068;42.896;20.868;2024-01-30T02:44:43;12.25;;;6.63;;
28960;SDS011;16068;42.896;20.868;2024-01-30T02:47:29;14.20;;;7.53;;
28960;SDS011;16068;42.896;20.868;2024-01-30T02:50:15;17.80;;;7.22;;
28960;SDS011;16068;42.896;20.868;2024-01-30T02:53:02;19.02;;;8.52;;
28960;SDS011;16068;42.896;20.868;2024-01-30T02:55:48;18.05;;;9.18;;
28960;SDS011;16068;42.896;20.868;2024-01-30T02:58:36;21.92;;;10.73;;
28960;SDS011;16068;42.896;20.868;2024-01-30T03:01:22;28.20;;;13.30;;
28960;SDS011;16068;42.896;20.868;2024-01-30T03:04:14;24.42;;;12.48;;
28960;SDS011;16068;42.896;20.868;2024-01-30T03:07:01;25.80;;;13.75;;
28960;SDS011;16068;42.896;20.868;2024-01-30T03:09:48;30.10;;;14.18;;
28960;SDS011;16068;42.896;20.868;2024-01-30T03:12:34;28.48;;;15.52;;
28960;SDS011;16068;42.896;20.868;2024-01-30T03:15:20;31.83;;;16.05;;
28960;SDS011;16068;42.896;20.868;2024-01-30T03:18:06;27.58;;;13.50;;
28960;SDS011;16068;42.896;20.868;2024-01-30T03:20:53;28.65;;;13.73;;
28960;SDS011;16068;42.896;20.868;2024-01-30T03:23:39;27.95;;;14.73;;
28960;SDS011;16068;42.896;20.868;2024-01-30T03:26:26;24.00;;;14.10;;
28960;SDS011;16068;42.896;20.868;2024-01-30T03:29:12;24.08;;;12.88;;
28960;SDS011;16068;42.896;20.868;2024-01-30T03:31:58;22.88;;;11.32;;
28960;SDS011;16068;42.896;20.868;2024-01-30T03:34:44;24.73;;;10.55;;
28960;SDS011;16068;42.896;20.868;2024-01-30T03:37:32;19.25;;;9.90;;
28960;SDS011;16068;42.896;20.868;2024-01-30T03:40:18;17.70;;;9.60;;
28960;SDS011;16068;42.896;20.868;2024-01-30T03:43:05;14.10;;;8.30;;
28960;SDS011;16068;42.896;20.868;2024-01-30T03:45:51;18.85;;;8.77;;
28960;SDS011;16068;42.896;20.868;2024-01-30T03:48:37;14.63;;;7.65;;
28960;SDS011;16068;42.896;20.868;2024-01-30T03:51:23;16.67;;;7.22;;
28960;SDS011;16068;42.896;20.868;2024-01-30T03:54:10;11.07;;;7.38;;
28960;SDS011;16068;42.896;20.868;2024-01-30T03:56:58;13.55;;;6.90;;
28960;SDS011;16068;42.896;20.868;2024-01-30T03:59:44;13.60;;;7.35;;
28960;SDS011;16068;42.896;20.868;2024-01-30T04:02:30;16.40;;;7.68;;
28960;SDS011;16068;42.896;20.868;2024-01-30T04:05:16;18.23;;;7.53;;
28960;SDS011;16068;42.896;20.868;2024-01-30T04:08:03;18.42;;;9.20;;
28960;SDS011;16068;42.896;20.868;2024-01-30T04:10:49;14.30;;;7.47;;
28960;SDS011;16068;42.896;20.868;2024-01-30T04:13:35;15.25;;;6.78;;
28960;SDS011;16068;42.896;20.868;2024-01-30T04:16:21;14.40;;;6.43;;
28960;SDS011;16068;42.896;20.868;2024-01-30T04:19:08;10.48;;;6.22;;
28960;SDS011;16068;42.896;20.868;2024-01-30T04:21:54;19.40;;;6.72;;
28960;SDS011;16068;42.896;20.868;2024-01-30T04:24:40;16.02;;;7.10;;
28960;SDS011;16068;42.896;20.868;2024-01-30T04:27:26;12.68;;;6.82;;
28960;SDS011;16068;42.896;20.868;2024-01-30T04:30:13;11.35;;;6.50;;
28960;SDS011;16068;42.896;20.868;2024-01-30T04:32:59;12.02;;;6.95;;
28960;SDS011;16068;42.896;20.868;2024-01-30T04:35:45;12.85;;;6.45;;
28960;SDS011;16068;42.896;20.868;2024-01-30T04:38:31;13.02;;;6.93;;
28960;SDS011;16068;42.896;20.868;2024-01-30T04:41:17;13.32;;;6.95;;
28960;SDS011;16068;42.896;20.868;2024-01-30T04:44:03;13.77;;;7.18;;
28960;SDS011;16068;42.896;20.868;2024-01-30T04:46:49;17.25;;;6.88;;
28960;SDS011;16068;42.896;20.868;2024-01-30T04:49:35;18.95;;;7.03;;
28960;SDS011;16068;42.896;20.868;2024-01-30T04:52:22;13.52;;;6.70;;
28960;SDS011;16068;42.896;20.868;2024-01-30T04:55:08;11.80;;;6.47;;
28960;SDS011;16068;42.896;20.868;2024-01-30T04:57:55;15.93;;;7.15;;
28960;SDS011;16068;42.896;20.868;2024-01-30T05:00:43;14.82;;;6.20;;
28960;SDS011;16068;42.896;20.868;2024-01-30T05:03:32;11.55;;;6.65;;
28960;SDS011;16068;42.896;20.868;2024-01-30T05:06:26;13.48;;;7.15;;
28960;SDS011;16068;42.896;20.868;2024-01-30T05:09:12;14.10;;;6.82;;
28960;SDS011;16068;42.896;20.868;2024-01-30T05:11:58;13.32;;;7.30;;
28960;SDS011;16068;42.896;20.868;2024-01-30T05:14:44;13.60;;;7.25;;
28960;SDS011;16068;42.896;20.868;2024-01-30T05:17:30;20.38;;;8.10;;
28960;SDS011;16068;42.896;20.868;2024-01-30T05:20:16;20.92;;;8.77;;
28960;SDS011;16068;42.896;20.868;2024-01-30T05:23:03;15.40;;;7.82;;
28960;SDS011;16068;42.896;20.868;2024-01-30T05:25:49;17.35;;;8.23;;
28960;SDS011;16068;42.896;20.868;2024-01-30T05:28:35;18.23;;;8.40;;
28960;SDS011;16068;42.896;20.868;2024-01-30T05:31:22;17.85;;;8.55;;
28960;SDS011;16068;42.896;20.868;2024-01-30T05:34:08;22.08;;;8.00;;
28960;SDS011;16068;42.896;20.868;2024-01-30T05:36:55;22.23;;;7.20;;
28960;SDS011;16068;42.896;20.868;2024-01-30T05:39:41;20.50;;;7.95;;
28960;SDS011;16068;42.896;20.868;2024-01-30T05:42:27;18.00;;;6.97;;
28960;SDS011;16068;42.896;20.868;2024-01-30T05:45:13;19.27;;;8.52;;
28960;SDS011;16068;42.896;20.868;2024-01-30T05:47:59;24.35;;;8.60;;
28960;SDS011;16068;42.896;20.868;2024-01-30T05:50:46;25.25;;;8.75;;
28960;SDS011;16068;42.896;20.868;2024-01-30T05:53:32;30.25;;;8.80;;
28960;SDS011;16068;42.896;20.868;2024-01-30T05:56:18;49.28;;;9.40;;
28960;SDS011;16068;42.896;20.868;2024-01-30T05:59:05;24.63;;;9.45;;
28960;SDS011;16068;42.896;20.868;2024-01-30T06:01:50;64.60;;;13.18;;
28960;SDS011;16068;42.896;20.868;2024-01-30T06:04:38;57.88;;;12.02;;
28960;SDS011;16068;42.896;20.868;2024-01-30T06:07:24;18.15;;;8.02;;
28960;SDS011;16068;42.896;20.868;2024-01-30T06:10:13;23.42;;;8.73;;
28960;SDS011;16068;42.896;20.868;2024-01-30T06:12:59;16.50;;;8.15;;
28960;SDS011;16068;42.896;20.868;2024-01-30T06:15:46;22.45;;;8.98;;
28960;SDS011;16068;42.896;20.868;2024-01-30T06:18:32;16.63;;;9.05;;
28960;SDS011;16068;42.896;20.868;2024-01-30T06:21:18;17.73;;;9.65;;
28960;SDS011;16068;42.896;20.868;2024-01-30T06:24:04;24.10;;;11.85;;
28960;SDS011;16068;42.896;20.868;2024-01-30T06:26:51;31.95;;;15.10;;
28960;SDS011;16068;42.896;20.868;2024-01-30T06:29:37;26.00;;;13.43;;
28960;SDS011;16068;42.896;20.868;2024-01-30T06:32:23;28.25;;;15.52;;
28960;SDS011;16068;42.896;20.868;2024-01-30T06:35:10;56.95;;;24.40;;
28960;SDS011;16068;42.896;20.868;2024-01-30T06:37:56;43.10;;;17.90;;
28960;SDS011;16068;42.896;20.868;2024-01-30T06:40:42;39.47;;;17.25;;
28960;SDS011;16068;42.896;20.868;2024-01-30T06:43:28;33.97;;;16.50;;
28960;SDS011;16068;42.896;20.868;2024-01-30T06:46:18;31.50;;;14.35;;
28960;SDS011;16068;42.896;20.868;2024-01-30T06:49:04;45.38;;;14.57;;
28960;SDS011;16068;42.896;20.868;2024-01-30T06:51:51;30.15;;;12.40;;
28960;SDS011;16068;42.896;20.868;2024-01-30T06:54:37;25.48;;;10.77;;
28960;SDS011;16068;42.896;20.868;2024-01-30T06:57:23;19.38;;;10.55;;
28960;SDS011;16068;42.896;20.868;2024-01-30T07:00:09;18.85;;;10.25;;
28960;SDS011;16068;42.896;20.868;2024-01-30T07:02:56;21.13;;;9.55;;
28960;SDS011;16068;42.896;20.868;2024-01-30T07:05:42;21.77;;;10.07;;
28960;SDS011;16068;42.896;20.868;2024-01-30T07:08:28;33.05;;;10.93;;
28960;SDS011;16068;42.896;20.868;2024-01-30T07:11:23;22.50;;;10.70;;
28960;SDS011;16068;42.896;20.868;2024-01-30T07:14:10;26.30;;;10.73;;
28960;SDS011;16068;42.896;20.868;2024-01-30T07:16:56;28.40;;;11.13;;
28960;SDS011;16068;42.896;20.868;2024-01-30T07:19:42;25.30;;;10.00;;
28960;SDS011;16068;42.896;20.868;2024-01-30T07:22:28;23.70;;;10.20;;
28960;SDS011;16068;42.896;20.868;2024-01-30T07:25:14;21.48;;;10.25;;
28960;SDS011;16068;42.896;20.868;2024-01-30T07:28:02;19.42;;;10.20;;
28960;SDS011;16068;42.896;20.868;2024-01-30T07:30:48;18.88;;;10.27;;
28960;SDS011;16068;42.896;20.868;2024-01-30T07:33:34;21.30;;;9.82;;
28960;SDS011;16068;42.896;20.868;2024-01-30T07:36:21;22.17;;;7.68;;
28960;SDS011;16068;42.896;20.868;2024-01-30T07:39:07;25.75;;;8.55;;
28960;SDS011;16068;42.896;20.868;2024-01-30T07:41:53;28.13;;;7.63;;
28960;SDS011;16068;42.896;20.868;2024-01-30T07:44:39;20.95;;;7.32;;
28960;SDS011;16068;42.896;20.868;2024-01-30T07:47:25;16.48;;;7.28;;
28960;SDS011;16068;42.896;20.868;2024-01-30T07:50:12;20.50;;;8.70;;
28960;SDS011;16068;42.896;20.868;2024-01-30T07:52:59;21.85;;;9.32;;
28960;SDS011;16068;42.896;20.868;2024-01-30T07:55:46;20.85;;;6.85;;
28960;SDS011;16068;42.896;20.868;2024-01-30T07:58:32;17.60;;;7.03;;
28960;SDS011;16068;42.896;20.868;2024-01-30T08:01:18;13.65;;;7.07;;
28960;SDS011;16068;42.896;20.868;2024-01-30T08:04:05;21.98;;;8.02;;
28960;SDS011;16068;42.896;20.868;2024-01-30T08:06:52;23.20;;;6.78;;
28960;SDS011;16068;42.896;20.868;2024-01-30T08:09:38;9.93;;;6.10;;
28960;SDS011;16068;42.896;20.868;2024-01-30T08:12:24;23.15;;;7.32;;
28960;SDS011;16068;42.896;20.868;2024-01-30T08:15:11;19.40;;;7.32;;
28960;SDS011;16068;42.896;20.868;2024-01-30T08:17:57;11.25;;;6.28;;
28960;SDS011;16068;42.896;20.868;2024-01-30T08:20:44;9.57;;;5.88;;
28960;SDS011;16068;42.896;20.868;2024-01-30T08:23:31;13.30;;;5.63;;
28960;SDS011;16068;42.896;20.868;2024-01-30T08:26:17;15.18;;;5.35;;
28960;SDS011;16068;42.896;20.868;2024-01-30T08:29:03;18.75;;;6.20;;
28960;SDS011;16068;42.896;20.868;2024-01-30T08:31:50;40.05;;;17.33;;
28960;SDS011;16068;42.896;20.868;2024-01-30T08:34:36;61.95;;;25.10;;
28960;SDS011;16068;42.896;20.868;2024-01-30T08:37:22;17.50;;;7.55;;
28960;SDS011;16068;42.896;20.868;2024-01-30T08:40:08;15.63;;;7.38;;
28960;SDS011;16068;42.896;20.868;2024-01-30T08:42:55;14.30;;;5.70;;
28960;SDS011;16068;42.896;20.868;2024-01-30T08:45:41;12.75;;;6.82;;
28960;SDS011;16068;42.896;20.868;2024-01-30T08:48:28;12.73;;;6.22;;
28960;SDS011;16068;42.896;20.868;2024-01-30T08:51:15;12.85;;;6.95;;
28960;SDS011;16068;42.896;20.868;2024-01-30T08:54:02;56.28;;;18.27;;
28960;SDS011;16068;42.896;20.868;2024-01-30T08:56:48;12.55;;;6.03;;
28960;SDS011;16068;42.896;20.868;2024-01-30T08:59:34;11.98;;;4.93;;
28960;SDS011;16068;42.896;20.868;2024-01-30T09:02:23;9.82;;;4.57;;
28960;SDS011;16068;42.896;20.868;2024-01-30T09:05:09;7.18;;;4.35;;
28960;SDS011;16068;42.896;20.868;2024-01-30T09:07:55;11.65;;;4.22;;
28960;SDS011;16068;42.896;20.868;2024-01-30T09:10:42;13.43;;;4.38;;
28960;SDS011;16068;42.896;20.868;2024-01-30T09:13:30;13.40;;;4.82;;
28960;SDS011;16068;42.896;20.868;2024-01-30T09:16:16;16.67;;;5.82;;
28960;SDS011;16068;42.896;20.868;2024-01-30T09:19:03;9.55;;;4.35;;
28960;SDS011;16068;42.896;20.868;2024-01-30T09:21:51;12.55;;;3.92;;
28960;SDS011;16068;42.896;20.868;2024-01-30T09:24:36;8.00;;;4.45;;
28960;SDS011;16068;42.896;20.868;2024-01-30T09:27:24;28.08;;;5.03;;
28960;SDS011;16068;42.896;20.868;2024-01-30T09:30:10;11.90;;;4.57;;
28960;SDS011;16068;42.896;20.868;2024-01-30T09:32:58;11.05;;;5.05;;
28960;SDS011;16068;42.896;20.868;2024-01-30T09:35:44;13.27;;;4.03;;
28960;SDS011;16068;42.896;20.868;2024-01-30T09:38:30;8.60;;;3.63;;
28960;SDS011;16068;42.896;20.868;2024-01-30T09:41:23;13.98;;;3.47;;
28960;SDS011;16068;42.896;20.868;2024-01-30T09:49:14;11.63;;;3.78;;
28960;SDS011;16068;42.896;20.868;2024-01-30T09:52:03;9.60;;;3.72;;
28960;SDS011;16068;42.896;20.868;2024-01-30T09:54:51;13.43;;;4.55;;
28960;SDS011;16068;42.896;20.868;2024-01-30T09:57:38;18.88;;;4.13;;
28960;SDS011;16068;42.896;20.868;2024-01-30T10:00:25;13.65;;;4.10;;
28960;SDS011;16068;42.896;20.868;2024-01-30T10:03:13;15.32;;;4.55;;
28960;SDS011;16068;42.896;20.868;2024-01-30T10:06:01;10.50;;;3.78;;
28960;SDS011;16068;42.896;20.868;2024-01-30T10:08:48;12.35;;;5.40;;
28960;SDS011;16068;42.896;20.868;2024-01-30T10:11:34;12.50;;;5.63;;
28960;SDS011;16068;42.896;20.868;2024-01-30T10:14:20;14.13;;;5.85;;
28960;SDS011;16068;42.896;20.868;2024-01-30T10:17:09;19.42;;;5.97;;
28960;SDS011;16068;42.896;20.868;2024-01-30T10:20:08;19.92;;;6.78;;
28960;SDS011;16068;42.896;20.868;2024-01-30T10:22:55;14.75;;;6.78;;
28960;SDS011;16068;42.896;20.868;2024-01-30T10:25:42;19.85;;;6.45;;
28960;SDS011;16068;42.896;20.868;2024-01-30T10:28:37;10.98;;;5.65;;
28960;SDS011;16068;42.896;20.868;2024-01-30T10:31:25;12.15;;;6.60;;
28960;SDS011;16068;42.896;20.868;2024-01-30T10:34:14;15.73;;;6.53;;
28960;SDS011;16068;42.896;20.868;2024-01-30T10:37:08;29.23;;;6.40;;
28960;SDS011;16068;42.896;20.868;2024-01-30T10:40:02;18.77;;;5.85;;
28960;SDS011;16068;42.896;20.868;2024-01-30T10:42:52;12.63;;;6.25;;
28960;SDS011;16068;42.896;20.868;2024-01-30T10:45:41;14.50;;;6.35;;
28960;SDS011;16068;42.896;20.868;2024-01-30T10:48:31;14.68;;;7.10;;
28960;SDS011;16068;42.896;20.868;2024-01-30T10:51:18;14.52;;;6.25;;
28960;SDS011;16068;42.896;20.868;2024-01-30T10:54:04;87.63;;;7.53;;
28960;SDS011;16068;42.896;20.868;2024-01-30T10:56:53;17.58;;;5.88;;
28960;SDS011;16068;42.896;20.868;2024-01-30T10:59:39;15.57;;;6.95;;
28960;SDS011;16068;42.896;20.868;2024-01-30T11:02:26;15.75;;;5.97;;
28960;SDS011;16068;42.896;20.868;2024-01-30T11:05:13;16.55;;;6.57;;
28960;SDS011;16068;42.896;20.868;2024-01-30T11:08:12;11.05;;;6.05;;
28960;SDS011;16068;42.896;20.868;2024-01-30T11:10:59;13.98;;;6.55;;
28960;SDS011;16068;42.896;20.868;2024-01-30T11:13:45;17.48;;;6.95;;
28960;SDS011;16068;42.896;20.868;2024-01-30T11:16:31;19.45;;;8.55;;
28960;SDS011;16068;42.896;20.868;2024-01-30T11:19:23;20.27;;;8.52;;
28960;SDS011;16068;42.896;20.868;2024-01-30T11:22:13;16.35;;;8.25;;
28960;SDS011;16068;42.896;20.868;2024-01-30T11:25:00;14.35;;;7.22;;
28960;SDS011;16068;42.896;20.868;2024-01-30T11:27:52;18.00;;;7.88;;
28960;SDS011;16068;42.896;20.868;2024-01-30T11:30:39;18.02;;;7.60;;
28960;SDS011;16068;42.896;20.868;2024-01-30T11:33:29;19.63;;;6.80;;
28960;SDS011;16068;42.896;20.868;2024-01-30T11:36:20;15.95;;;7.15;;
28960;SDS011;16068;42.896;20.868;2024-01-30T11:39:10;14.95;;;7.53;;
28960;SDS011;16068;42.896;20.868;2024-01-30T11:41:57;27.50;;;13.35;;
28960;SDS011;16068;42.896;20.868;2024-01-30T11:44:47;28.75;;;11.88;;
28960;SDS011;16068;42.896;20.868;2024-01-30T11:47:35;24.73;;;11.38;;
28960;SDS011;16068;42.896;20.868;2024-01-30T11:50:26;25.63;;;12.70;;
28960;SDS011;16068;42.896;20.868;2024-01-30T11:53:13;21.10;;;9.50;;
28960;SDS011;16068;42.896;20.868;2024-01-30T11:55:59;22.08;;;11.80;;
28960;SDS011;16068;42.896;20.868;2024-01-30T11:58:45;131.60;;;80.72;;
28960;SDS011;16068;42.896;20.868;2024-01-30T12:01:31;32.40;;;13.30;;
28960;SDS011;16068;42.896;20.868;2024-01-30T12:04:18;45.05;;;15.25;;
28960;SDS011;16068;42.896;20.868;2024-01-30T12:07:04;114.72;;;65.07;;
28960;SDS011;16068;42.896;20.868;2024-01-30T12:09:53;39.17;;;23.80;;
28960;SDS011;16068;42.896;20.868;2024-01-30T12:12:45;55.42;;;29.67;;
28960;SDS011;16068;42.896;20.868;2024-01-30T12:15:33;29.25;;;14.88;;
28960;SDS011;16068;42.896;20.868;2024-01-30T12:18:19;30.25;;;14.07;;
28960;SDS011;16068;42.896;20.868;2024-01-30T12:21:06;21.88;;;11.82;;
28960;SDS011;16068;42.896;20.868;2024-01-30T12:23:54;24.08;;;14.93;;
28960;SDS011;16068;42.896;20.868;2024-01-30T12:26:41;31.30;;;11.38;;
28960;SDS011;16068;42.896;20.868;2024-01-30T12:29:27;29.00;;;13.15;;
28960;SDS011;16068;42.896;20.868;2024-01-30T12:35:17;12.35;;;4.57;;
28960;SDS011;16068;42.896;20.868;2024-01-30T12:38:03;9.88;;;4.47;;
28960;SDS011;16068;42.896;20.868;2024-01-30T12:40:55;7.32;;;4.25;;
28960;SDS011;16068;42.896;20.868;2024-01-30T12:43:42;14.40;;;4.25;;
28960;SDS011;16068;42.896;20.868;2024-01-30T12:46:30;9.77;;;3.92;;
28960;SDS011;16068;42.896;20.868;2024-01-30T12:49:16;5.53;;;2.88;;
28960;SDS011;16068;42.896;20.868;2024-01-30T12:59:25;7.63;;;3.40;;
28960;SDS011;16068;42.896;20.868;2024-01-30T13:02:11;6.10;;;2.78;;
28960;SDS011;16068;42.896;20.868;2024-01-30T13:04:58;8.98;;;2.53;;
28960;SDS011;16068;42.896;20.868;2024-01-30T13:07:44;13.20;;;3.05;;
28960;SDS011;16068;42.896;20.868;2024-01-30T13:10:30;6.20;;;3.05;;
28960;SDS011;16068;42.896;20.868;2024-01-30T13:13:17;5.57;;;3.33;;
28960;SDS011;16068;42.896;20.868;2024-01-30T13:16:05;7.00;;;3.40;;
28960;SDS011;16068;42.896;20.868;2024-01-30T13:18:51;17.13;;;3.50;;
28960;SDS011;16068;42.896;20.868;2024-01-30T13:21:42;11.30;;;3.92;;
28960;SDS011;16068;42.896;20.868;2024-01-30T13:24:28;5.70;;;2.92;;
28960;SDS011;16068;42.896;20.868;2024-01-30T13:27:27;6.20;;;3.00;;
28960;SDS011;16068;42.896;20.868;2024-01-30T13:30:12;10.40;;;3.80;;
28960;SDS011;16068;42.896;20.868;2024-01-30T13:32:59;12.27;;;3.00;;
28960;SDS011;16068;42.896;20.868;2024-01-30T13:38:54;6.03;;;3.53;;
28960;SDS011;16068;42.896;20.868;2024-01-30T13:41:41;8.63;;;2.72;;
28960;SDS011;16068;42.896;20.868;2024-01-30T13:47:48;9.55;;;2.80;;
28960;SDS011;16068;42.896;20.868;2024-01-30T13:50:34;4.53;;;2.80;;
28960;SDS011;16068;42.896;20.868;2024-01-30T13:53:20;7.18;;;3.05;;
28960;SDS011;16068;42.896;20.868;2024-01-30T13:56:07;10.63;;;3.50;;
28960;SDS011;16068;42.896;20.868;2024-01-30T13:58:53;4.47;;;2.92;;
28960;SDS011;16068;42.896;20.868;2024-01-30T14:01:41;9.82;;;3.38;;
28960;SDS011;16068;42.896;20.868;2024-01-30T14:04:27;17.48;;;5.60;;
28960;SDS011;16068;42.896;20.868;2024-01-30T14:07:13;9.50;;;3.40;;
28960;SDS011;16068;42.896;20.868;2024-01-30T14:09:59;8.40;;;3.72;;
28960;SDS011;16068;42.896;20.868;2024-01-30T14:12:46;7.32;;;2.80;;
28960;SDS011;16068;42.896;20.868;2024-01-30T14:15:33;6.78;;;3.40;;
28960;SDS011;16068;42.896;20.868;2024-01-30T14:18:20;7.32;;;3.45;;
28960;SDS011;16068;42.896;20.868;2024-01-30T14:21:06;4.75;;;3.08;;
28960;SDS011;16068;42.896;20.868;2024-01-30T14:23:53;8.05;;;3.85;;
28960;SDS011;16068;42.896;20.868;2024-01-30T14:26:39;16.23;;;4.43;;
28960;SDS011;16068;42.896;20.868;2024-01-30T14:29:25;23.15;;;6.55;;
28960;SDS011;16068;42.896;20.868;2024-01-30T14:32:12;24.20;;;8.77;;
28960;SDS011;16068;42.896;20.868;2024-01-30T14:34:58;16.20;;;5.55;;
28960;SDS011;16068;42.896;20.868;2024-01-30T14:37:44;17.85;;;8.82;;
28960;SDS011;16068;42.896;20.868;2024-01-30T14:40:31;19.88;;;8.35;;
28960;SDS011;16068;42.896;20.868;2024-01-30T14:43:17;21.23;;;8.18;;
28960;SDS011;16068;42.896;20.868;2024-01-30T14:46:03;26.05;;;12.63;;
28960;SDS011;16068;42.896;20.868;2024-01-30T14:48:52;17.92;;;9.57;;
28960;SDS011;16068;42.896;20.868;2024-01-30T14:51:38;29.23;;;11.25;;
28960;SDS011;16068;42.896;20.868;2024-01-30T14:54:24;23.50;;;13.00;;
28960;SDS011;16068;42.896;20.868;2024-01-30T14:57:11;21.25;;;10.68;;
28960;SDS011;16068;42.896;20.868;2024-01-30T14:59:57;24.55;;;12.02;;
28960;SDS011;16068;42.896;20.868;2024-01-30T15:02:48;22.90;;;10.05;;
28960;SDS011;16068;42.896;20.868;2024-01-30T15:05:34;28.00;;;11.35;;
28960;SDS011;16068;42.896;20.868;2024-01-30T15:08:20;28.25;;;13.07;;
28960;SDS011;16068;42.896;20.868;2024-01-30T15:11:08;35.47;;;13.63;;
28960;SDS011;16068;42.896;20.868;2024-01-30T15:13:54;27.40;;;11.35;;
28960;SDS011;16068;42.896;20.868;2024-01-30T15:16:40;24.65;;;11.57;;
28960;SDS011;16068;42.896;20.868;2024-01-30T15:19:34;27.63;;;14.07;;
28960;SDS011;16068;42.896;20.868;2024-01-30T15:22:20;33.17;;;17.27;;
28960;SDS011;16068;42.896;20.868;2024-01-30T15:25:06;39.15;;;16.23;;
28960;SDS011;16068;42.896;20.868;2024-01-30T15:31:24;43.33;;;16.58;;
28960;SDS011;16068;42.896;20.868;2024-01-30T15:34:12;41.55;;;14.88;;
28960;SDS011;16068;42.896;20.868;2024-01-30T15:36:58;49.08;;;16.30;;
28960;SDS011;16068;42.896;20.868;2024-01-30T15:39:44;36.75;;;16.35;;
28960;SDS011;16068;42.896;20.868;2024-01-30T15:42:45;42.97;;;16.40;;
28960;SDS011;16068;42.896;20.868;2024-01-30T15:45:31;43.28;;;16.33;;
28960;SDS011;16068;42.896;20.868;2024-01-30T15:48:18;39.67;;;17.73;;
28960;SDS011;16068;42.896;20.868;2024-01-30T15:51:05;43.70;;;18.50;;
28960;SDS011;16068;42.896;20.868;2024-01-30T15:53:51;40.97;;;18.40;;
28960;SDS011;16068;42.896;20.868;2024-01-30T15:56:37;40.25;;;19.17;;
28960;SDS011;16068;42.896;20.868;2024-01-30T15:59:29;54.80;;;26.77;;
28960;SDS011;16068;42.896;20.868;2024-01-30T16:02:16;46.35;;;24.02;;
28960;SDS011;16068;42.896;20.868;2024-01-30T16:05:04;50.15;;;23.77;;
28960;SDS011;16068;42.896;20.868;2024-01-30T16:08:02;53.55;;;22.95;;
28960;SDS011;16068;42.896;20.868;2024-01-30T16:10:48;57.45;;;22.52;;
28960;SDS011;16068;42.896;20.868;2024-01-30T16:13:34;46.08;;;22.13;;
28960;SDS011;16068;42.896;20.868;2024-01-30T16:19:35;67.43;;;24.00;;
28960;SDS011;16068;42.896;20.868;2024-01-30T16:22:21;52.80;;;20.98;;
28960;SDS011;16068;42.896;20.868;2024-01-30T16:29:17;50.17;;;21.30;;
28960;SDS011;16068;42.896;20.868;2024-01-30T16:32:02;72.47;;;23.40;;
28960;SDS011;16068;42.896;20.868;2024-01-30T16:34:57;71.90;;;24.42;;
28960;SDS011;16068;42.896;20.868;2024-01-30T16:37:44;76.32;;;26.30;;
28960;SDS011;16068;42.896;20.868;2024-01-30T16:40:30;64.68;;;25.33;;
28960;SDS011;16068;42.896;20.868;2024-01-30T16:43:20;76.85;;;26.58;;
28960;SDS011;16068;42.896;20.868;2024-01-30T16:46:06;85.68;;;29.75;;
28960;SDS011;16068;42.896;20.868;2024-01-30T16:48:52;74.53;;;22.88;;